createdAt,value
2022-11-20T00:01:16.513Z,15.00
2022-11-20T00:03:43.199Z,14.91
2022-11-20T00:06:12.289Z,14.88
2022-11-20T00:08:38.875Z,14.94
2022-11-20T00:11:16.906Z,15.01
2022-11-20T00:13:44.485Z,14.90
2022-11-20T00:16:12.821Z,15.01
2022-11-20T00:18:39.499Z,14.88
2022-11-20T00:21:08.671Z,14.88
2022-11-20T00:23:35.659Z,14.98
2022-11-20T00:26:06.800Z,15.00
2022-11-20T00:28:33.328Z,14.95
2022-11-20T00:31:07.944Z,14.92
2022-11-20T00:33:34.547Z,14.97
2022-11-20T00:36:05.880Z,14.80
2022-11-20T00:38:32.919Z,14.87
2022-11-20T00:41:00.751Z,14.84
2022-11-20T00:43:27.955Z,14.92
2022-11-20T00:46:07.963Z,14.93
2022-11-20T00:48:34.515Z,15.03
2022-11-20T00:51:01.128Z,15.01
2022-11-20T00:53:28.096Z,14.99
2022-11-20T00:55:58.960Z,14.85
2022-11-20T00:58:29.215Z,14.94
2022-11-20T01:01:01.141Z,14.86
2022-11-20T01:03:27.716Z,14.89
2022-11-20T01:05:54.259Z,14.89
2022-11-20T01:08:20.801Z,14.81
2022-11-20T01:10:47.349Z,14.85
2022-11-20T01:13:32.236Z,14.99
2022-11-20T01:16:13.142Z,14.86
2022-11-20T01:18:42.716Z,14.81
2022-11-20T01:21:34.085Z,14.83
2022-11-20T01:24:01.105Z,14.75
2022-11-20T01:26:29.762Z,14.84
2022-11-20T01:28:56.922Z,14.87
2022-11-20T01:31:24.593Z,14.80
2022-11-20T01:33:53.099Z,14.82
2022-11-20T01:36:20.843Z,14.74
2022-11-20T01:38:47.581Z,14.70
2022-11-20T01:41:33.955Z,14.73
2022-11-20T01:44:01.129Z,14.62
2022-11-20T01:46:28.269Z,14.77
2022-11-20T01:49:06.742Z,14.71
2022-11-20T01:51:51.118Z,14.73
2022-11-20T01:54:25.354Z,14.72
2022-11-20T01:56:53.703Z,14.79
2022-11-20T01:59:21.046Z,14.83
2022-11-20T02:01:48.087Z,14.79
2022-11-20T02:04:14.995Z,14.78
2022-11-20T02:06:45.804Z,14.78
2022-11-20T02:09:12.770Z,14.80
2022-11-20T02:11:39.371Z,14.83
2022-11-20T02:14:05.904Z,14.76
2022-11-20T02:16:35.542Z,14.76
2022-11-20T02:19:03.758Z,14.67
2022-11-20T02:21:50.372Z,14.74
2022-11-20T02:24:18.716Z,14.63
2022-11-20T02:26:52.541Z,14.58
2022-11-20T02:29:28.008Z,14.68
2022-11-20T02:31:56.210Z,14.65
2022-11-20T02:34:22.795Z,14.70
2022-11-20T02:36:50.918Z,14.62
2022-11-20T02:39:20.460Z,14.73
2022-11-20T02:41:47.512Z,14.62
2022-11-20T02:44:14.111Z,14.75
2022-11-20T02:46:40.834Z,14.68
2022-11-20T02:49:07.439Z,14.58
2022-11-20T02:51:34.001Z,14.63
2022-11-20T02:54:00.647Z,14.63
2022-11-20T02:56:27.199Z,14.68
2022-11-20T02:58:53.819Z,14.66
2022-11-20T03:01:20.436Z,14.62
2022-11-20T03:03:49.449Z,14.61
2022-11-20T03:06:17.558Z,14.52
2022-11-20T03:08:44.211Z,14.56
2022-11-20T03:11:10.887Z,14.58
2022-11-20T03:13:37.466Z,14.63
2022-11-20T03:16:14.803Z,14.73
2022-11-20T03:18:42.291Z,14.66
2022-11-20T03:21:10.212Z,14.64
2022-11-20T03:23:37.392Z,14.74
2022-11-20T03:26:20.011Z,14.53
2022-11-20T03:28:57.438Z,14.50
2022-11-20T03:31:35.711Z,14.62
2022-11-20T03:34:02.671Z,14.57
2022-11-20T03:36:29.410Z,14.55
2022-11-20T03:38:57.038Z,14.61
2022-11-20T03:41:26.570Z,14.61
2022-11-20T03:43:57.225Z,14.57
2022-11-20T03:46:24.187Z,14.59
2022-11-20T03:48:52.149Z,14.55
2022-11-20T03:51:33.486Z,14.44
2022-11-20T03:54:02.498Z,14.44
2022-11-20T03:56:36.296Z,14.56
2022-11-20T03:59:03.270Z,14.62
2022-11-20T04:01:32.650Z,14.53
2022-11-20T04:03:59.569Z,14.54
2022-11-20T04:06:29.090Z,14.58
2022-11-20T04:08:56.780Z,14.41
2022-11-20T04:11:25.351Z,14.50
2022-11-20T04:13:54.361Z,14.51
2022-11-20T04:16:21.979Z,14.51
2022-11-20T04:18:48.568Z,14.51
2022-11-20T04:21:15.091Z,14.52
2022-11-20T04:23:41.684Z,14.39
2022-11-20T04:26:09.131Z,14.47
2022-11-20T04:28:36.138Z,14.43
2022-11-20T04:31:07.039Z,14.48
2022-11-20T04:33:34.674Z,14.44
2022-11-20T04:36:03.442Z,14.44
2022-11-20T04:38:30.098Z,14.39
2022-11-20T04:40:58.767Z,14.43
2022-11-20T04:43:25.331Z,14.35
2022-11-20T04:45:56.094Z,14.38
2022-11-20T04:48:23.279Z,14.36
2022-11-20T04:50:49.921Z,14.44
2022-11-20T04:53:16.495Z,14.45
2022-11-20T04:55:43.058Z,14.43
2022-11-20T04:58:09.613Z,14.46
2022-11-20T05:00:36.377Z,14.49
2022-11-20T05:03:02.915Z,14.41
2022-11-20T05:05:29.449Z,14.37
2022-11-20T05:07:59.527Z,14.47
2022-11-20T05:10:28.096Z,14.40
2022-11-20T05:12:54.735Z,14.38
2022-11-20T05:15:21.363Z,14.39
2022-11-20T05:17:49.781Z,14.34
2022-11-20T05:20:16.483Z,14.40
2022-11-20T05:22:43.423Z,14.36
2022-11-20T05:25:10.110Z,14.33
2022-11-20T05:27:36.664Z,14.32
2022-11-20T05:30:04.683Z,14.31
2022-11-20T05:32:31.240Z,14.28
2022-11-20T05:34:57.868Z,14.30
2022-11-20T05:37:24.464Z,14.33
2022-11-20T05:39:50.991Z,14.29
2022-11-20T05:42:32.983Z,14.34
2022-11-20T05:45:00.977Z,14.28
2022-11-20T05:47:28.656Z,14.21
2022-11-20T05:49:55.246Z,14.38
2022-11-20T05:52:21.790Z,14.25
2022-11-20T05:54:48.366Z,14.17
2022-11-20T05:57:14.935Z,14.21
2022-11-20T05:59:41.518Z,14.26
2022-11-20T06:02:08.073Z,14.23
2022-11-20T06:04:34.644Z,14.26
2022-11-20T06:07:01.243Z,14.23
2022-11-20T06:09:27.872Z,14.27
2022-11-20T06:11:54.446Z,14.14
2022-11-20T06:14:21.023Z,14.11
2022-11-20T06:16:47.620Z,14.07
2022-11-20T06:19:14.174Z,13.98
2022-11-20T06:21:40.726Z,14.08
2022-11-20T06:24:07.670Z,14.09
2022-11-20T06:26:34.280Z,14.15
2022-11-20T06:29:00.852Z,14.21
2022-11-20T06:31:27.556Z,14.09
2022-11-20T06:33:54.138Z,14.05
2022-11-20T06:36:22.723Z,14.21
2022-11-20T06:38:49.667Z,14.17
2022-11-20T06:41:18.434Z,14.40
2022-11-20T06:43:45.227Z,14.52
2022-11-20T06:46:14.067Z,14.60
2022-11-20T06:48:40.870Z,14.76
2022-11-20T06:51:08.862Z,14.76
2022-11-20T06:53:36.071Z,14.84
2022-11-20T06:56:02.613Z,14.79
2022-11-20T06:58:31.007Z,14.76
2022-11-20T07:01:01.824Z,14.75
2022-11-20T07:03:28.475Z,14.61
2022-11-20T07:05:59.159Z,14.77
2022-11-20T07:08:25.896Z,14.62
2022-11-20T07:10:52.461Z,14.82
2022-11-20T07:13:19.010Z,14.85
2022-11-20T07:15:45.575Z,14.92
2022-11-20T07:18:12.194Z,14.92
2022-11-20T07:20:38.760Z,14.98
2022-11-20T07:23:05.297Z,14.98
2022-11-20T07:25:31.938Z,15.00
2022-11-20T07:27:59.617Z,15.05
2022-11-20T07:30:26.691Z,15.03
2022-11-20T07:32:53.771Z,15.03
2022-11-20T07:35:20.755Z,15.01
2022-11-20T07:37:48.262Z,14.90
2022-11-20T07:40:15.499Z,14.90
2022-11-20T07:42:55.860Z,14.99
2022-11-20T07:45:24.179Z,15.03
2022-11-20T07:47:50.904Z,15.02
2022-11-20T07:50:17.917Z,15.08
2022-11-20T07:52:44.723Z,15.12
2022-11-20T07:55:11.582Z,15.08
2022-11-20T07:57:38.190Z,15.09
2022-11-20T08:00:06.040Z,15.14
2022-11-20T08:02:32.583Z,15.26
2022-11-20T08:04:59.139Z,15.49
2022-11-20T08:07:25.753Z,15.76
2022-11-20T08:09:52.305Z,16.01
2022-11-20T08:12:38.603Z,16.17
2022-11-20T08:15:11.333Z,16.40
2022-11-20T08:17:39.574Z,16.54
2022-11-20T08:20:06.323Z,16.67
2022-11-20T08:22:33.166Z,16.76
2022-11-20T08:24:59.793Z,16.88
2022-11-20T08:27:26.350Z,16.97
2022-11-20T08:29:52.920Z,17.04
2022-11-20T08:32:19.503Z,17.10
2022-11-20T08:34:46.115Z,17.15
2022-11-20T08:37:12.679Z,17.19
2022-11-20T08:39:39.323Z,17.17
2022-11-20T08:42:09.221Z,17.13
2022-11-20T08:44:35.791Z,17.05
2022-11-20T08:47:02.331Z,17.04
2022-11-20T08:49:28.891Z,17.00
2022-11-20T08:51:56.291Z,17.10
2022-11-20T08:54:23.625Z,17.14
2022-11-20T08:56:50.156Z,17.12
2022-11-20T08:59:27.364Z,17.09
2022-11-20T09:02:03.213Z,16.99
2022-11-20T09:04:29.750Z,16.98
2022-11-20T09:06:56.319Z,16.97
2022-11-20T09:09:23.419Z,16.97
2022-11-20T09:11:51.011Z,16.90
2022-11-20T09:14:17.586Z,16.89
2022-11-20T09:16:46.089Z,16.85
2022-11-20T09:19:34.476Z,16.83
2022-11-20T09:22:00.989Z,16.81
2022-11-20T09:24:28.123Z,16.73
2022-11-20T09:26:54.723Z,16.78
2022-11-20T09:29:21.395Z,16.54
2022-11-20T09:31:48.087Z,16.62
2022-11-20T09:34:14.619Z,16.60
2022-11-20T09:36:41.188Z,16.51
2022-11-20T09:39:07.790Z,16.51
2022-11-20T09:41:56.154Z,16.62
2022-11-20T09:44:48.755Z,16.63
2022-11-20T09:47:24.338Z,16.62
2022-11-20T09:50:13.859Z,16.60
2022-11-20T09:53:09.143Z,16.61
2022-11-20T09:55:37.203Z,16.65
2022-11-20T09:58:07.167Z,16.60
2022-11-20T10:00:35.393Z,16.66
2022-11-20T10:03:11.004Z,16.69
2022-11-20T10:05:45.339Z,16.66
2022-11-20T10:08:19.906Z,16.59
2022-11-20T10:10:52.587Z,16.73
2022-11-20T10:13:35.548Z,16.72
2022-11-20T10:16:20.697Z,16.78
2022-11-20T10:19:14.913Z,16.89
2022-11-20T10:22:08.355Z,16.89
2022-11-20T10:24:46.092Z,16.89
2022-11-20T10:27:27.666Z,16.91
2022-11-20T10:30:02.610Z,17.02
2022-11-20T10:32:40.809Z,16.92
2022-11-20T10:35:30.196Z,16.97
2022-11-20T10:38:00.101Z,17.00
2022-11-20T10:40:39.519Z,16.97
2022-11-20T10:43:13.578Z,16.97
2022-11-20T10:45:58.395Z,16.96
2022-11-20T10:48:27.060Z,17.00
2022-11-20T10:51:12.060Z,16.91
2022-11-20T10:53:59.114Z,16.93
2022-11-20T10:56:39.959Z,16.88
2022-11-20T10:59:25.001Z,16.86
2022-11-20T11:01:51.625Z,16.86
2022-11-20T11:04:33.260Z,16.80
2022-11-20T11:07:17.129Z,16.81
2022-11-20T11:10:33.168Z,16.83
2022-11-20T11:12:59.702Z,16.85
2022-11-20T11:15:41.154Z,16.81
2022-11-20T11:18:11.918Z,16.84
2022-11-20T11:20:38.829Z,16.81
2022-11-20T11:23:08.151Z,16.85
2022-11-20T11:25:37.968Z,16.85
2022-11-20T11:28:20.751Z,16.86
2022-11-20T11:30:50.198Z,16.91
2022-11-20T11:33:24.999Z,16.84
2022-11-20T11:36:02.402Z,16.85
2022-11-20T11:38:33.843Z,16.89
2022-11-20T11:41:00.500Z,16.85
2022-11-20T11:43:49.493Z,16.78
2022-11-20T11:46:25.171Z,16.86
2022-11-20T11:49:09.732Z,16.79
2022-11-20T11:51:54.128Z,16.86
2022-11-20T11:54:25.059Z,16.87
2022-11-20T11:56:52.167Z,16.89
2022-11-20T11:59:39.604Z,17.00
2022-11-20T12:02:20.549Z,16.99
2022-11-20T12:05:06.349Z,16.96
2022-11-20T12:07:49.368Z,17.11
2022-11-20T12:10:22.111Z,17.11
2022-11-20T12:13:02.032Z,17.13
2022-11-20T12:15:34.583Z,17.15
2022-11-20T12:18:01.783Z,17.17
2022-11-20T12:20:37.069Z,17.15
2022-11-20T12:23:18.972Z,17.15
2022-11-20T12:25:49.225Z,17.12
2022-11-20T12:28:19.274Z,17.05
2022-11-20T12:31:04.074Z,17.01
2022-11-20T12:33:51.879Z,17.06
2022-11-20T12:37:00.186Z,17.13
2022-11-20T12:39:58.863Z,17.02
2022-11-20T12:42:51.835Z,16.91
2022-11-20T12:45:53.922Z,16.89
2022-11-20T12:48:20.415Z,16.69
2022-11-20T12:51:18.519Z,16.66
2022-11-20T12:53:57.236Z,16.68
2022-11-20T12:56:30.363Z,16.75
2022-11-20T12:59:10.835Z,16.81
2022-11-20T13:01:52.551Z,16.76
2022-11-20T13:04:29.411Z,16.83
2022-11-20T13:06:56.195Z,16.88
2022-11-20T13:09:23.828Z,16.92
2022-11-20T13:12:02.300Z,17.02
2022-11-20T13:15:00.250Z,17.03
2022-11-20T13:17:31.900Z,17.09
2022-11-20T13:19:59.746Z,17.10
2022-11-20T13:22:30.888Z,17.15
2022-11-20T13:24:57.473Z,17.05
2022-11-20T13:27:25.011Z,17.09
2022-11-20T13:30:16.271Z,17.18
2022-11-20T13:32:52.699Z,17.15
2022-11-20T13:35:28.222Z,17.03
2022-11-20T13:38:12.310Z,17.14
2022-11-20T13:40:40.704Z,17.03
2022-11-20T13:43:16.842Z,17.07
2022-11-20T13:45:43.394Z,17.05
2022-11-20T13:48:36.192Z,17.05
2022-11-20T13:51:02.674Z,17.10
2022-11-20T13:53:43.480Z,17.04
2022-11-20T13:56:26.447Z,17.13
2022-11-20T13:59:19.267Z,17.06
2022-11-20T14:01:46.961Z,17.00
2022-11-20T14:04:25.159Z,16.96
2022-11-20T14:06:52.094Z,17.06
2022-11-20T14:09:32.953Z,16.89
2022-11-20T14:12:00.050Z,16.93
2022-11-20T14:14:28.207Z,16.96
2022-11-20T14:17:09.212Z,16.92
2022-11-20T14:19:38.139Z,16.90
2022-11-20T14:22:30.803Z,16.85
2022-11-20T14:25:06.151Z,16.88
2022-11-20T14:27:35.951Z,16.76
2022-11-20T14:30:03.781Z,16.77
2022-11-20T14:32:32.004Z,16.72
2022-11-20T14:35:08.536Z,16.79
2022-11-20T14:37:38.546Z,16.89
2022-11-20T14:40:23.405Z,16.83
2022-11-20T14:42:49.926Z,16.76
2022-11-20T14:45:16.600Z,16.72
2022-11-20T14:47:43.592Z,16.73
2022-11-20T14:50:22.000Z,16.70
2022-11-20T14:52:53.033Z,16.73
2022-11-20T14:55:30.460Z,16.68
2022-11-20T14:57:59.422Z,16.76
2022-11-20T15:00:26.205Z,16.80
2022-11-20T15:02:53.272Z,16.83
2022-11-20T15:05:22.221Z,16.89
2022-11-20T15:07:51.868Z,16.98
2022-11-20T15:10:25.229Z,17.02
2022-11-20T15:12:54.311Z,16.98
2022-11-20T15:15:33.803Z,16.96
2022-11-20T15:18:00.830Z,16.89
2022-11-20T15:20:30.200Z,16.99
2022-11-20T15:22:56.748Z,16.99
2022-11-20T15:25:25.525Z,17.06
2022-11-20T15:27:58.146Z,16.94
2022-11-20T15:30:25.011Z,17.06
2022-11-20T15:32:51.610Z,17.11
2022-11-20T15:35:18.172Z,17.15
2022-11-20T15:37:44.891Z,17.22
2022-11-20T15:40:11.811Z,17.27
2022-11-20T15:42:38.343Z,17.31
2022-11-20T15:45:05.259Z,17.30
2022-11-20T15:47:34.969Z,17.24
2022-11-20T15:50:01.738Z,17.31
2022-11-20T15:52:30.574Z,17.31
2022-11-20T15:55:08.278Z,17.28
2022-11-20T15:57:36.226Z,17.27
2022-11-20T16:00:03.616Z,17.30
2022-11-20T16:02:30.183Z,17.34
2022-11-20T16:04:56.727Z,17.32
2022-11-20T16:07:23.338Z,17.26
2022-11-20T16:09:49.909Z,17.18
2022-11-20T16:12:36.438Z,17.19
2022-11-20T16:15:21.902Z,17.20
2022-11-20T16:17:48.454Z,17.12
2022-11-20T16:20:15.020Z,17.08
2022-11-20T16:22:41.563Z,17.12
2022-11-20T16:25:08.261Z,17.21
2022-11-20T16:27:34.836Z,17.14
2022-11-20T16:30:01.364Z,17.09
2022-11-20T16:32:27.908Z,17.13
2022-11-20T16:34:54.464Z,17.11
2022-11-20T16:37:21.085Z,17.09
2022-11-20T16:39:47.627Z,17.00
2022-11-20T16:42:14.196Z,17.07
2022-11-20T16:44:40.799Z,17.01
2022-11-20T16:47:07.747Z,17.07
2022-11-20T16:49:34.348Z,16.98
2022-11-20T16:52:00.910Z,16.94
2022-11-20T16:54:27.610Z,16.96
2022-11-20T16:56:54.332Z,16.91
2022-11-20T16:59:21.018Z,16.82
2022-11-20T17:01:47.633Z,16.47
2022-11-20T17:04:14.665Z,16.48
2022-11-20T17:06:44.187Z,16.43
2022-11-20T17:09:11.079Z,16.48
2022-11-20T17:11:37.728Z,16.39
2022-11-20T17:14:07.399Z,16.45
2022-11-20T17:16:35.784Z,16.27
2022-11-20T17:19:03.875Z,16.30
2022-11-20T17:21:31.515Z,16.24
2022-11-20T17:24:02.299Z,16.22
2022-11-20T17:26:29.141Z,16.25
2022-11-20T17:28:59.934Z,16.22
2022-11-20T17:31:27.282Z,16.27
2022-11-20T17:33:54.107Z,16.23
2022-11-20T17:36:20.904Z,16.34
2022-11-20T17:38:47.656Z,16.39
2022-11-20T17:41:16.359Z,16.46
2022-11-20T17:43:43.610Z,16.48
2022-11-20T17:46:12.300Z,16.47
2022-11-20T17:48:42.340Z,16.42
2022-11-20T17:53:39.843Z,16.27
2022-11-20T17:56:25.190Z,16.23
2022-11-20T17:58:51.787Z,16.27
2022-11-20T18:01:19.122Z,16.45
2022-11-20T18:03:45.882Z,16.66
2022-11-20T18:06:14.563Z,16.74
2022-11-20T18:08:41.980Z,16.83
2022-11-20T18:11:12.910Z,16.94
2022-11-20T18:13:59.003Z,17.03
2022-11-20T18:16:25.859Z,17.09
2022-11-20T18:18:56.459Z,17.20
2022-11-20T18:21:23.903Z,17.40
2022-11-20T18:23:50.767Z,17.43
2022-11-20T18:26:18.415Z,17.44
2022-11-20T18:28:45.834Z,17.58
2022-11-20T18:31:13.189Z,17.60
2022-11-20T18:33:40.068Z,17.58
2022-11-20T18:36:21.172Z,17.55
2022-11-20T18:38:49.588Z,17.62
2022-11-20T18:41:36.983Z,17.57
2022-11-20T18:44:23.749Z,17.57
2022-11-20T18:46:50.703Z,17.64
2022-11-20T18:49:17.390Z,17.59
2022-11-20T18:51:44.393Z,17.58
2022-11-20T18:54:12.050Z,17.54
2022-11-20T18:56:39.313Z,17.55
2022-11-20T18:59:07.397Z,17.48
2022-11-20T19:01:34.459Z,17.47
2022-11-20T19:04:01.083Z,17.43
2022-11-20T19:06:27.668Z,17.34
2022-11-20T19:08:54.730Z,17.39
2022-11-20T19:11:21.276Z,17.27
2022-11-20T19:13:47.870Z,17.25
2022-11-20T19:16:20.331Z,17.16
2022-11-20T19:18:48.404Z,17.17
2022-11-20T19:21:17.636Z,17.14
2022-11-20T19:23:48.200Z,17.10
2022-11-20T19:26:15.411Z,17.02
2022-11-20T19:28:41.991Z,17.03
2022-11-20T19:31:24.289Z,16.91
2022-11-20T19:33:55.907Z,16.84
2022-11-20T19:36:27.867Z,16.98
2022-11-20T19:38:54.807Z,17.04
2022-11-20T19:41:29.099Z,17.03
2022-11-20T19:44:00.281Z,17.06
2022-11-20T19:46:28.656Z,17.01
2022-11-20T19:48:56.024Z,17.09
2022-11-20T19:51:27.262Z,17.04
2022-11-20T19:53:55.873Z,16.97
2022-11-20T19:56:22.862Z,17.05
2022-11-20T19:58:49.450Z,17.01
2022-11-20T20:01:20.876Z,17.04
2022-11-20T20:03:48.072Z,17.02
2022-11-20T20:06:20.564Z,17.07
2022-11-20T20:08:48.147Z,17.02
2022-11-20T20:11:17.091Z,17.01
2022-11-20T20:13:44.514Z,17.08
2022-11-20T20:16:16.327Z,17.00
2022-11-20T20:18:43.335Z,17.00
2022-11-20T20:21:12.393Z,16.99
2022-11-20T20:23:39.436Z,17.01
2022-11-20T20:26:07.583Z,17.00
2022-11-20T20:28:35.165Z,17.04
2022-11-20T20:31:09.426Z,16.91
2022-11-20T20:33:37.246Z,16.94
2022-11-20T20:36:05.315Z,16.82
2022-11-20T20:38:31.943Z,16.87
2022-11-20T20:40:58.514Z,16.82
2022-11-20T20:43:25.455Z,16.80
2022-11-20T20:45:52.367Z,16.77
2022-11-20T20:48:21.315Z,16.73
2022-11-20T20:50:58.856Z,16.72
2022-11-20T20:53:25.450Z,16.72
2022-11-20T20:55:55.657Z,16.70
2022-11-20T20:58:22.516Z,16.75
2022-11-20T21:00:49.084Z,16.71
2022-11-20T21:03:15.685Z,16.61
2022-11-20T21:05:42.207Z,16.65
2022-11-20T21:08:25.288Z,16.61
2022-11-20T21:10:53.536Z,16.56
2022-11-20T21:13:21.126Z,16.53
2022-11-20T21:15:49.594Z,16.57
2022-11-20T21:18:17.968Z,16.51
2022-11-20T21:21:04.356Z,16.59
2022-11-20T21:23:31.099Z,16.61
2022-11-20T21:26:00.818Z,16.60
2022-11-20T21:28:27.360Z,16.52
2022-11-20T21:30:53.902Z,16.41
2022-11-20T21:33:20.480Z,16.25
2022-11-20T21:35:47.040Z,16.28
2022-11-20T21:38:13.607Z,16.20
2022-11-20T21:40:40.166Z,16.07
2022-11-20T21:43:06.766Z,16.21
2022-11-20T21:45:33.308Z,16.02
2022-11-20T21:47:59.911Z,15.87
2022-11-20T21:50:26.443Z,15.83
2022-11-20T21:52:52.986Z,15.73
2022-11-20T21:55:19.534Z,15.74
2022-11-20T21:57:46.076Z,15.69
2022-11-20T22:00:13.129Z,15.81
2022-11-20T22:02:40.422Z,15.73
2022-11-20T22:05:07.889Z,15.81
2022-11-20T22:07:35.295Z,15.73
2022-11-20T22:10:01.951Z,15.77
2022-11-20T22:12:28.511Z,15.73
2022-11-20T22:14:55.071Z,15.72
2022-11-20T22:17:41.601Z,15.74
2022-11-20T22:20:09.136Z,15.70
2022-11-20T22:22:35.677Z,15.65
2022-11-20T22:25:04.623Z,15.59
2022-11-20T22:27:31.307Z,15.67
2022-11-20T22:29:57.827Z,15.73
2022-11-20T22:32:24.381Z,15.72
2022-11-20T22:34:50.918Z,15.79
2022-11-20T22:37:17.602Z,15.55
2022-11-20T22:39:44.155Z,15.61
2022-11-20T22:42:10.734Z,15.64
2022-11-20T22:44:37.272Z,15.64
2022-11-20T22:47:08.686Z,15.57
2022-11-20T22:49:37.759Z,15.70
2022-11-20T22:52:04.382Z,15.66
2022-11-20T22:54:30.923Z,15.62
2022-11-20T22:56:57.514Z,15.74
2022-11-20T22:59:24.095Z,15.68
2022-11-20T23:01:50.691Z,15.66
2022-11-20T23:04:17.304Z,15.66
2022-11-20T23:06:43.847Z,15.69
2022-11-20T23:09:12.732Z,15.69
2022-11-20T23:11:39.329Z,15.69
2022-11-20T23:14:08.222Z,15.70
2022-11-20T23:16:35.187Z,15.59
2022-11-20T23:19:07.271Z,15.67
2022-11-20T23:21:35.183Z,15.62
2022-11-20T23:24:02.161Z,15.62
2022-11-20T23:26:30.835Z,15.58
2022-11-20T23:28:58.863Z,15.58
2022-11-20T23:31:27.234Z,15.62
2022-11-20T23:33:54.083Z,15.58
2022-11-20T23:36:20.663Z,15.64
2022-11-20T23:38:47.259Z,15.55
2022-11-20T23:41:14.395Z,15.58
2022-11-20T23:43:40.994Z,15.54
2022-11-20T23:46:16.803Z,15.48
2022-11-20T23:48:45.092Z,15.56
2022-11-20T23:51:11.944Z,15.51
2022-11-20T23:53:38.627Z,15.49
2022-11-20T23:56:05.704Z,15.49
2022-11-20T23:58:36.956Z,15.47
